Time;durP1;ratioP1;P1;durP2;ratioP2;P2;SDS_P1;SDS_P2;PMS_P1;PMS_P2;Temp;Humidity;BMP_temperature;BMP_pressure;BME280_temperature;BME280_humidity;BME280_pressure;Samples;Min_cycle;Max_cycle;Signal;HPM_P1;HPM_P2
2023/08/23 00:00:56;;;;;;;7.82;2.33;;;15.50;99.90;;;;;;4972058;28;20093;-75
2023/08/23 00:03:22;;;;;;;7.85;2.33;;;15.50;99.90;;;;;;4972802;28;20038;-75
2023/08/23 00:05:47;;;;;;;11.85;2.65;;;15.50;99.90;;;;;;4971991;28;20039;-74
2023/08/23 00:08:13;;;;;;;8.73;2.40;;;15.50;99.90;;;;;;4972444;28;20084;-74
2023/08/23 00:10:39;;;;;;;13.02;2.95;;;15.50;99.90;;;;;;4972797;28;20372;-76
2023/08/23 00:13:04;;;;;;;8.70;2.63;;;15.50;99.90;;;;;;4972212;28;20042;-76
2023/08/23 00:15:30;;;;;;;5.82;2.30;;;15.50;99.90;;;;;;4971869;28;20182;-74
2023/08/23 00:17:56;;;;;;;6.65;2.47;;;15.40;99.90;;;;;;4986060;28;20061;-75
2023/08/23 00:20:21;;;;;;;6.57;2.40;;;15.40;99.90;;;;;;4972099;28;20412;-76
2023/08/23 00:22:47;;;;;;;6.05;2.55;;;15.40;99.90;;;;;;4971234;28;20089;-76
2023/08/23 00:25:13;;;;;;;7.47;2.38;;;15.40;99.90;;;;;;4972147;28;20087;-75
2023/08/23 00:27:38;;;;;;;5.60;2.58;;;15.40;99.90;;;;;;4971967;28;20046;-75
2023/08/23 00:30:05;;;;;;;6.65;2.58;;;15.50;99.90;;;;;;4971446;28;20361;-76
2023/08/23 00:32:30;;;;;;;7.00;2.17;;;15.50;99.90;;;;;;4971664;28;20431;-75
2023/08/23 00:34:56;;;;;;;11.23;2.42;;;15.50;99.90;;;;;;4971318;28;20023;-76
2023/08/23 00:37:22;;;;;;;6.28;2.00;;;15.50;99.90;;;;;;4986492;28;20091;-74
2023/08/23 00:39:48;;;;;;;6.47;2.40;;;15.60;99.90;;;;;;4971175;28;20050;-75
2023/08/23 00:42:13;;;;;;;6.97;2.30;;;15.60;99.90;;;;;;4971517;28;20035;-75
2023/08/23 00:44:39;;;;;;;7.78;2.47;;;15.70;99.90;;;;;;4971869;28;20025;-75
2023/08/23 00:47:05;;;;;;;10.88;2.83;;;15.70;99.90;;;;;;4969584;28;20042;-75
2023/08/23 00:49:34;;;;;;;7.85;2.45;;;15.70;99.90;;;;;;4987967;28;20107;-76
2023/08/23 00:52:01;;;;;;;11.43;3.20;;;15.70;99.90;;;;;;4990114;28;20500;-74
2023/08/23 00:54:27;;;;;;;7.47;2.45;;;15.70;99.90;;;;;;4991085;28;20037;-74
2023/08/23 00:56:55;;;;;;;7.28;3.03;;;15.70;99.90;;;;;;4990406;28;20057;-74
2023/08/23 00:59:21;;;;;;;7.50;2.65;;;15.70;99.90;;;;;;4990971;28;20064;-74
2023/08/23 01:01:48;;;;;;;16.60;3.55;;;15.70;99.90;;;;;;4990520;28;20031;-76
2023/08/23 01:04:14;;;;;;;11.55;2.97;;;15.60;99.90;;;;;;4991343;28;20054;-75
2023/08/23 01:06:52;;;;;;;8.52;2.08;;;15.60;99.90;;;;;;4990960;28;20026;-74
2023/08/23 01:09:41;;;;;;;8.45;1.92;;;15.60;99.90;;;;;;4990707;28;20433;-75
2023/08/23 01:12:39;;;;;;;8.02;2.13;;;15.50;99.90;;;;;;4989634;28;20045;-75
2023/08/23 01:15:09;;;;;;;7.45;2.03;;;15.60;99.90;;;;;;4990827;28;20066;-76
2023/08/23 01:17:41;;;;;;;11.80;2.55;;;15.60;99.90;;;;;;4990297;28;20092;-76
2023/08/23 01:20:10;;;;;;;7.38;2.40;;;15.70;99.90;;;;;;4991475;28;20058;-76
2023/08/23 01:22:41;;;;;;;10.90;2.38;;;15.60;99.90;;;;;;4991781;28;20045;-75
2023/08/23 01:25:07;;;;;;;8.88;2.38;;;15.70;99.90;;;;;;4991281;28;20026;-77
2023/08/23 01:27:34;;;;;;;6.25;2.22;;;15.60;99.90;;;;;;4990710;28;20121;-76
2023/08/23 01:30:00;;;;;;;10.00;2.58;;;15.70;99.90;;;;;;4991963;28;20368;-75
2023/08/23 01:32:43;;;;;;;7.07;1.92;;;15.70;99.90;;;;;;4994576;28;20109;-75
2023/08/23 01:35:16;;;;;;;3.92;2.20;;;15.70;99.90;;;;;;4993670;28;20031;-74
2023/08/23 01:37:45;;;;;;;7.20;2.75;;;15.70;99.90;;;;;;4992904;28;20132;-76
2023/08/23 01:40:11;;;;;;;6.20;2.20;;;15.70;99.90;;;;;;4993721;28;20069;-76
2023/08/23 01:42:39;;;;;;;7.75;2.63;;;15.60;99.90;;;;;;4994252;28;20122;-76
2023/08/23 01:45:05;;;;;;;9.05;2.33;;;15.60;99.90;;;;;;4993457;28;20054;-75
2023/08/23 01:47:31;;;;;;;6.13;2.08;;;15.60;99.90;;;;;;4993720;28;20097;-76
2023/08/23 01:49:56;;;;;;;7.40;2.92;;;15.60;99.90;;;;;;4993098;28;20058;-75
2023/08/23 01:52:22;;;;;;;6.38;2.20;;;15.60;99.90;;;;;;4994328;28;20050;-76
2023/08/23 01:54:48;;;;;;;8.13;2.67;;;15.60;99.90;;;;;;4992295;28;20026;-77
2023/08/23 01:57:13;;;;;;;8.85;2.40;;;15.60;99.90;;;;;;4993801;28;20033;-76
2023/08/23 01:59:39;;;;;;;10.13;2.80;;;15.60;99.90;;;;;;4993695;28;20027;-76
2023/08/23 02:02:05;;;;;;;13.75;2.88;;;15.60;99.90;;;;;;4993224;28;20416;-76
2023/08/23 02:04:31;;;;;;;8.02;2.15;;;15.60;99.90;;;;;;4993843;28;20409;-76
2023/08/23 02:06:56;;;;;;;5.35;2.58;;;15.60;99.90;;;;;;4992084;28;20191;-76
2023/08/23 02:09:22;;;;;;;5.18;1.98;;;15.60;99.90;;;;;;4993621;28;20022;-76
2023/08/23 02:11:48;;;;;;;5.47;2.00;;;15.60;99.90;;;;;;4993602;28;20380;-76
2023/08/23 02:14:13;;;;;;;7.15;2.40;;;15.60;99.90;;;;;;4993913;28;20089;-76
2023/08/23 02:16:39;;;;;;;7.22;2.30;;;15.60;99.90;;;;;;4993573;28;20468;-73
2023/08/23 02:19:05;;;;;;;9.10;2.30;;;15.60;99.90;;;;;;4992857;28;20031;-74
2023/08/23 02:21:30;;;;;;;6.13;2.15;;;15.60;99.90;;;;;;4993526;28;20070;-75
2023/08/23 02:23:56;;;;;;;7.32;2.22;;;15.60;99.90;;;;;;4992695;28;20515;-75
2023/08/23 02:26:22;;;;;;;6.65;2.42;;;15.60;99.90;;;;;;4993153;28;20072;-76
2023/08/23 02:28:47;;;;;;;9.75;2.33;;;15.60;99.90;;;;;;4992014;28;20372;-76
2023/08/23 02:31:13;;;;;;;9.80;2.67;;;15.50;99.90;;;;;;4993126;28;20062;-76
2023/08/23 02:33:39;;;;;;;5.60;2.17;;;15.50;99.90;;;;;;4992190;28;20364;-76
2023/08/23 02:36:04;;;;;;;5.25;1.83;;;15.60;99.90;;;;;;4991743;28;20030;-76
2023/08/23 02:38:30;;;;;;;5.13;2.03;;;15.60;99.90;;;;;;5000010;28;20054;-76
2023/08/23 02:40:56;;;;;;;6.15;1.92;;;15.60;99.90;;;;;;4995142;28;20037;-75
2023/08/23 02:43:22;;;;;;;4.45;1.70;;;15.60;99.90;;;;;;4993962;28;20094;-75
2023/08/23 02:45:48;;;;;;;6.75;2.50;;;15.60;99.90;;;;;;4993277;28;20094;-76
2023/08/23 02:48:14;;;;;;;6.38;2.42;;;15.60;99.90;;;;;;4992573;28;20117;-75
2023/08/23 02:50:40;;;;;;;8.77;2.50;;;15.70;99.90;;;;;;4992875;28;20035;-75
2023/08/23 02:53:06;;;;;;;11.45;2.50;;;15.70;99.90;;;;;;4992133;28;20472;-75
2023/08/23 02:55:39;;;;;;;6.53;2.17;;;15.70;99.90;;;;;;4992680;28;20023;-74
2023/08/23 02:58:05;;;;;;;7.43;2.50;;;15.70;99.90;;;;;;4992104;28;20030;-75
2023/08/23 03:00:30;;;;;;;5.47;2.40;;;15.60;99.90;;;;;;4992856;28;20073;-76
2023/08/23 03:02:56;;;;;;;6.00;2.05;;;15.60;99.90;;;;;;4992370;28;20383;-76
2023/08/23 03:05:22;;;;;;;4.72;1.83;;;15.60;99.90;;;;;;4992228;28;20037;-75
2023/08/23 03:07:48;;;;;;;5.15;2.10;;;15.60;99.90;;;;;;4992515;28;20038;-76
2023/08/23 03:10:14;;;;;;;6.40;2.10;;;15.70;99.90;;;;;;4992171;28;20036;-75
2023/08/23 03:12:39;;;;;;;6.05;2.20;;;15.60;99.90;;;;;;4991982;28;20030;-75
2023/08/23 03:15:06;;;;;;;4.72;2.08;;;15.60;99.90;;;;;;4991890;28;20030;-75
2023/08/23 03:17:31;;;;;;;8.32;2.50;;;15.60;99.90;;;;;;4992221;28;20037;-75
2023/08/23 03:19:58;;;;;;;7.68;2.33;;;15.60;99.90;;;;;;4991754;28;20031;-76
2023/08/23 03:22:24;;;;;;;6.53;1.92;;;15.60;99.90;;;;;;4992297;28;20360;-74
2023/08/23 03:24:50;;;;;;;8.60;1.95;;;15.60;99.90;;;;;;4992399;28;20181;-75
2023/08/23 03:27:15;;;;;;;9.25;2.03;;;15.60;99.90;;;;;;4991561;28;20488;-76
2023/08/23 03:29:46;;;;;;;5.68;2.05;;;15.60;99.90;;;;;;4992062;28;20028;-75
2023/08/23 03:32:11;;;;;;;5.32;1.88;;;15.60;99.90;;;;;;4991844;28;20090;-75
2023/08/23 03:34:37;;;;;;;5.20;1.83;;;15.50;99.90;;;;;;4991854;28;20057;-76
2023/08/23 03:37:03;;;;;;;7.20;2.33;;;15.40;99.90;;;;;;4989389;28;20038;-76
2023/08/23 03:39:28;;;;;;;8.25;2.50;;;15.30;99.90;;;;;;4991970;28;20444;-75
2023/08/23 03:41:54;;;;;;;5.93;2.10;;;15.30;99.90;;;;;;4992008;28;20367;-77
2023/08/23 03:44:20;;;;;;;10.98;2.60;;;15.30;99.90;;;;;;4991297;28;20034;-76
2023/08/23 03:46:45;;;;;;;8.40;2.40;;;15.30;99.90;;;;;;4991796;28;20444;-75
2023/08/23 03:49:11;;;;;;;8.57;2.42;;;15.20;99.90;;;;;;4991099;28;20065;-75
2023/08/23 03:51:37;;;;;;;7.20;2.58;;;15.20;99.90;;;;;;4991565;28;20072;-75
2023/08/23 03:54:03;;;;;;;7.95;2.10;;;15.20;99.90;;;;;;4990958;28;20026;-76
2023/08/23 03:56:28;;;;;;;9.52;2.90;;;15.20;99.90;;;;;;4991733;28;20034;-75
2023/08/23 03:58:56;;;;;;;5.75;2.20;;;15.10;99.90;;;;;;4990254;28;20033;-75
2023/08/23 04:01:21;;;;;;;6.13;2.40;;;15.10;99.90;;;;;;4991361;28;20061;-75
2023/08/23 04:03:47;;;;;;;5.60;2.47;;;15.10;99.90;;;;;;4991443;28;20180;-76
2023/08/23 04:06:13;;;;;;;4.72;2.20;;;15.10;99.90;;;;;;4989655;28;20459;-77
2023/08/23 04:08:38;;;;;;;4.85;1.95;;;15.10;99.90;;;;;;4991431;28;20035;-76
2023/08/23 04:11:04;;;;;;;7.60;2.50;;;15.10;99.90;;;;;;4990856;28;20128;-75
2023/08/23 04:13:30;;;;;;;6.35;2.28;;;15.00;99.90;;;;;;4991180;28;20052;-77
2023/08/23 04:15:56;;;;;;;5.30;2.30;;;15.10;99.90;;;;;;4991063;28;20030;-76
2023/08/23 04:18:21;;;;;;;11.35;2.53;;;15.10;99.90;;;;;;4989678;28;20120;-76
2023/08/23 04:20:57;;;;;;;7.75;2.47;;;15.20;99.90;;;;;;4991302;28;20446;-76
2023/08/23 04:23:22;;;;;;;7.03;2.53;;;15.20;99.90;;;;;;4991170;28;20074;-76
2023/08/23 04:25:48;;;;;;;5.35;2.13;;;15.20;99.90;;;;;;4991317;28;20329;-76
2023/08/23 04:28:14;;;;;;;7.60;2.35;;;15.20;99.90;;;;;;4990541;28;20034;-74
2023/08/23 04:30:42;;;;;;;4.60;2.13;;;15.30;99.90;;;;;;4990822;28;20536;-76
2023/08/23 04:33:08;;;;;;;6.80;2.42;;;15.30;99.90;;;;;;4990352;28;20030;-75
2023/08/23 04:35:34;;;;;;;4.45;2.22;;;15.30;99.90;;;;;;4989592;28;20033;-76
2023/08/23 04:38:00;;;;;;;6.25;2.65;;;15.20;99.90;;;;;;4990577;28;20177;-77
2023/08/23 04:40:25;;;;;;;5.82;2.33;;;15.20;99.90;;;;;;4991141;28;20051;-76
2023/08/23 04:42:51;;;;;;;6.28;2.58;;;15.20;99.90;;;;;;4991300;28;20494;-75
2023/08/23 04:45:17;;;;;;;8.45;2.50;;;15.20;99.90;;;;;;4990864;28;20023;-76
2023/08/23 04:47:44;;;;;;;4.22;2.28;;;15.10;99.90;;;;;;4991239;28;20057;-76
2023/08/23 04:50:09;;;;;;;7.43;2.45;;;15.10;99.90;;;;;;4990812;28;20420;-76
2023/08/23 04:52:35;;;;;;;6.70;2.30;;;15.10;99.90;;;;;;4990626;28;20030;-76
2023/08/23 04:55:01;;;;;;;5.78;2.78;;;15.00;99.90;;;;;;4988728;28;20026;-77
2023/08/23 04:57:27;;;;;;;7.20;2.60;;;15.00;99.90;;;;;;4990907;28;20027;-74
2023/08/23 04:59:53;;;;;;;5.85;2.38;;;15.00;99.90;;;;;;4990514;28;20038;-75
2023/08/23 05:02:19;;;;;;;6.63;2.60;;;15.00;99.90;;;;;;4980963;28;20042;-75
2023/08/23 05:04:45;;;;;;;5.07;2.40;;;15.00;99.90;;;;;;4973322;28;20031;-75
2023/08/23 05:07:10;;;;;;;8.95;3.10;;;14.90;99.90;;;;;;4973279;28;20038;-75
2023/08/23 05:09:36;;;;;;;6.28;2.60;;;14.80;99.90;;;;;;4975263;28;20044;-75
2023/08/23 05:12:02;;;;;;;7.75;2.40;;;14.80;99.90;;;;;;4974916;28;20042;-77
2023/08/23 05:14:28;;;;;;;4.55;2.35;;;14.80;99.90;;;;;;4975071;28;20031;-75
2023/08/23 05:16:53;;;;;;;4.75;2.10;;;14.80;99.90;;;;;;4974823;28;20492;-76
2023/08/23 05:19:19;;;;;;;10.07;2.92;;;14.80;99.90;;;;;;4974784;28;20027;-75
2023/08/23 05:21:45;;;;;;;5.80;2.55;;;14.90;99.90;;;;;;4975226;28;20031;-75
2023/08/23 05:24:12;;;;;;;5.25;2.58;;;14.80;99.90;;;;;;4973170;28;20115;-76
2023/08/23 05:26:38;;;;;;;5.72;2.58;;;14.70;99.90;;;;;;4974513;28;20034;-75
2023/08/23 05:29:03;;;;;;;7.00;2.97;;;14.70;99.90;;;;;;4974392;28;20046;-75
2023/08/23 05:31:29;;;;;;;8.02;2.80;;;14.70;99.90;;;;;;4974995;28;20022;-75
2023/08/23 05:33:55;;;;;;;4.40;2.50;;;14.60;99.90;;;;;;4974783;28;20493;-76
2023/08/23 05:36:21;;;;;;;9.40;2.65;;;14.60;99.90;;;;;;4974076;28;20114;-75
2023/08/23 05:38:47;;;;;;;6.03;2.53;;;14.60;99.90;;;;;;4973358;28;20046;-75
2023/08/23 05:41:12;;;;;;;5.97;2.75;;;14.60;99.90;;;;;;4974583;28;20030;-75
2023/08/23 05:43:38;;;;;;;6.10;2.45;;;14.60;99.90;;;;;;4974740;28;20027;-76
2023/08/23 05:46:04;;;;;;;5.53;2.40;;;14.60;99.90;;;;;;4974017;28;20034;-77
2023/08/23 05:48:34;;;;;;;6.15;2.78;;;14.60;99.90;;;;;;4974557;28;20083;-76
2023/08/23 05:51:03;;;;;;;8.30;2.83;;;14.60;99.90;;;;;;4974684;28;20042;-76
2023/08/23 05:53:29;;;;;;;6.18;3.00;;;14.50;99.90;;;;;;4974130;28;20113;-75
2023/08/23 05:55:55;;;;;;;9.38;2.83;;;14.50;99.90;;;;;;4973517;28;20545;-76
2023/08/23 05:58:21;;;;;;;7.13;3.20;;;14.50;99.90;;;;;;4973755;28;20031;-74
2023/08/23 06:00:48;;;;;;;7.10;2.63;;;14.40;99.90;;;;;;4974222;28;20125;-75
2023/08/23 06:03:14;;;;;;;7.70;3.13;;;14.30;99.90;;;;;;4973359;28;20054;-75
2023/08/23 06:05:41;;;;;;;8.82;3.03;;;14.30;99.90;;;;;;4974241;28;20077;-75
2023/08/23 06:08:08;;;;;;;9.07;3.28;;;14.20;99.90;;;;;;4973619;28;20177;-76
2023/08/23 06:10:34;;;;;;;7.65;3.03;;;14.10;99.90;;;;;;4974174;28;20045;-75
2023/08/23 06:12:59;;;;;;;9.75;3.10;;;14.20;99.90;;;;;;4972961;28;20030;-75
2023/08/23 06:15:25;;;;;;;11.43;3.80;;;14.10;99.90;;;;;;4973113;28;20094;-75
2023/08/23 06:17:53;;;;;;;5.53;2.85;;;14.10;99.90;;;;;;4973863;28;20384;-76
2023/08/23 06:20:19;;;;;;;10.98;3.03;;;14.10;99.90;;;;;;4973344;28;20030;-75
2023/08/23 06:22:45;;;;;;;9.40;3.33;;;14.20;99.90;;;;;;4973714;28;20026;-75
2023/08/23 06:25:10;;;;;;;9.07;3.50;;;14.30;99.90;;;;;;4973204;28;20089;-75
2023/08/23 06:27:37;;;;;;;5.18;3.35;;;14.50;99.90;;;;;;4973783;28;20046;-74
2023/08/23 06:30:06;;;;;;;10.80;3.50;;;14.60;99.90;;;;;;4973782;28;20101;-75
2023/08/23 06:32:32;;;;;;;8.38;2.90;;;14.90;99.90;;;;;;4973767;28;20416;-73
2023/08/23 06:34:57;;;;;;;8.68;2.85;;;15.00;99.90;;;;;;4974170;28;20030;-74
2023/08/23 06:37:23;;;;;;;10.65;3.08;;;15.10;99.90;;;;;;4973234;28;20102;-75
2023/08/23 06:39:49;;;;;;;7.35;2.70;;;15.20;99.90;;;;;;4972364;28;20074;-75
2023/08/23 06:42:17;;;;;;;7.80;3.22;;;15.30;99.90;;;;;;4973945;28;20027;-75
2023/08/23 06:44:43;;;;;;;5.22;3.22;;;15.50;99.90;;;;;;4972396;28;20027;-74
2023/08/23 06:47:09;;;;;;;5.60;2.72;;;15.60;99.90;;;;;;4972779;28;20023;-75
2023/08/23 06:49:35;;;;;;;6.53;2.33;;;15.80;99.90;;;;;;4973705;28;20031;-74
2023/08/23 06:52:01;;;;;;;6.68;2.90;;;15.90;99.90;;;;;;4973323;28;20053;-75
2023/08/23 06:54:27;;;;;;;7.28;2.45;;;16.10;99.90;;;;;;4984753;28;20058;-75
2023/08/23 06:56:53;;;;;;;6.80;2.85;;;16.20;99.90;;;;;;4992213;28;20100;-75
2023/08/23 06:59:18;;;;;;;5.47;2.53;;;16.30;99.90;;;;;;4974085;28;20435;-75
2023/08/23 07:01:45;;;;;;;8.07;3.28;;;16.40;99.90;;;;;;4973243;28;20049;-74
2023/08/23 07:04:11;;;;;;;8.70;2.90;;;16.60;99.90;;;;;;4972431;28;20105;-75
2023/08/23 07:06:37;;;;;;;10.98;3.00;;;16.70;99.90;;;;;;4971671;28;20122;-75
2023/08/23 07:09:03;;;;;;;8.15;3.05;;;16.80;99.90;;;;;;4972975;28;20031;-75
2023/08/23 07:11:29;;;;;;;7.32;3.00;;;16.90;99.90;;;;;;4972284;28;20063;-76
2023/08/23 07:13:55;;;;;;;10.73;3.33;;;17.10;99.90;;;;;;4972651;28;20027;-75
2023/08/23 07:16:20;;;;;;;7.55;2.60;;;17.10;99.90;;;;;;4972256;28;20042;-75
2023/08/23 07:18:46;;;;;;;7.22;2.42;;;17.20;99.90;;;;;;4972316;28;20062;-76
2023/08/23 07:21:12;;;;;;;8.43;2.80;;;17.40;99.90;;;;;;4971959;28;20090;-75
2023/08/23 07:23:37;;;;;;;7.60;2.67;;;17.50;99.90;;;;;;4972248;28;20535;-76
2023/08/23 07:26:04;;;;;;;13.35;3.15;;;17.60;99.90;;;;;;4972992;28;20130;-74
2023/08/23 07:28:30;;;;;;;9.95;2.47;;;17.70;99.90;;;;;;4971087;28;20031;-74
2023/08/23 07:30:59;;;;;;;6.88;2.35;;;17.80;99.90;;;;;;4972226;28;20050;-75
2023/08/23 07:33:26;;;;;;;7.53;2.30;;;17.80;99.90;;;;;;4971847;28;20035;-75
2023/08/23 07:35:59;;;;;;;9.60;2.40;;;17.90;99.90;;;;;;4972463;28;20067;-74
2023/08/23 07:38:25;;;;;;;6.93;2.22;;;17.90;99.90;;;;;;4969760;28;20392;-75
2023/08/23 07:40:57;;;;;;;8.30;2.10;;;18.10;99.90;;;;;;4971185;28;20133;-75
2023/08/23 07:43:23;;;;;;;17.83;3.50;;;18.10;99.90;;;;;;4972175;28;20418;-76
2023/08/23 07:45:56;;;;;;;16.55;3.15;;;18.20;99.90;;;;;;4972569;28;20113;-76
2023/08/23 07:48:23;;;;;;;11.02;3.05;;;18.10;99.90;;;;;;4971781;28;20384;-75
2023/08/23 07:50:55;;;;;;;8.52;2.45;;;18.10;99.90;;;;;;4972514;28;20027;-76
2023/08/23 07:53:22;;;;;;;14.35;3.03;;;18.10;99.90;;;;;;4971898;28;20034;-76
2023/08/23 07:55:48;;;;;;;12.68;2.10;;;18.10;99.90;;;;;;4971077;28;20336;-74
2023/08/23 07:58:15;;;;;;;5.68;2.10;;;18.10;99.90;;;;;;4971895;28;20026;-77
2023/08/23 08:00:41;;;;;;;9.68;2.33;;;18.00;99.90;;;;;;4972134;28;20026;-75
2023/08/23 08:03:06;;;;;;;8.30;2.17;;;18.10;99.90;;;;;;4972257;28;20096;-76
2023/08/23 08:05:36;;;;;;;9.20;2.28;;;18.20;99.90;;;;;;4971527;28;20626;-76
2023/08/23 08:08:02;;;;;;;9.48;2.67;;;18.40;99.90;;;;;;4972225;28;20505;-76
2023/08/23 08:10:29;;;;;;;6.10;2.05;;;18.50;99.90;;;;;;4970511;28;20404;-76
2023/08/23 08:12:55;;;;;;;6.07;1.95;;;18.60;99.90;;;;;;4972479;28;20113;-76
2023/08/23 08:15:21;;;;;;;5.72;1.70;;;18.70;99.90;;;;;;4971332;28;20093;-76
2023/08/23 08:17:50;;;;;;;6.85;1.25;;;18.70;99.90;;;;;;4972018;28;20031;-76
2023/08/23 08:20:20;;;;;;;5.80;1.85;;;18.80;99.90;;;;;;4971903;28;20094;-76
2023/08/23 08:22:45;;;;;;;6.65;1.75;;;18.90;99.90;;;;;;4972285;28;20442;-75
2023/08/23 08:25:11;;;;;;;9.05;1.80;;;19.00;99.90;;;;;;4972556;28;20101;-76
2023/08/23 08:27:37;;;;;;;5.13;1.65;;;18.90;99.90;;;;;;4971407;28;20052;-75
2023/08/23 08:30:03;;;;;;;5.07;1.48;;;19.00;99.90;;;;;;4971861;28;20089;-75
2023/08/23 08:32:29;;;;;;;6.95;1.88;;;19.20;99.90;;;;;;4971467;28;20085;-76
2023/08/23 08:34:58;;;;;;;7.07;1.98;;;19.30;99.90;;;;;;4971845;28;20030;-75
2023/08/23 08:37:25;;;;;;;6.80;2.08;;;19.40;99.90;;;;;;4979407;28;20030;-76
2023/08/23 08:39:51;;;;;;;8.75;1.95;;;19.50;99.90;;;;;;4980310;28;20082;-74
2023/08/23 08:42:16;;;;;;;4.38;1.88;;;19.60;99.90;;;;;;4988071;28;20057;-77
2023/08/23 08:44:45;;;;;;;5.80;1.55;;;19.60;99.90;;;;;;4991163;28;20069;-75
2023/08/23 08:47:11;;;;;;;5.15;1.75;;;19.70;99.90;;;;;;4991197;28;20062;-75
2023/08/23 08:49:37;;;;;;;4.78;1.80;;;19.80;99.90;;;;;;4990105;28;20529;-74
2023/08/23 08:52:04;;;;;;;5.88;1.48;;;19.80;99.90;;;;;;4978833;28;20026;-75
2023/08/23 08:54:34;;;;;;;10.32;2.05;;;19.90;99.90;;;;;;4990922;28;20359;-74
2023/08/23 08:57:01;;;;;;;4.50;1.60;;;20.00;99.90;;;;;;4990661;28;20030;-73
2023/08/23 08:59:27;;;;;;;6.70;1.52;;;20.00;99.90;;;;;;4989901;28;20034;-74
2023/08/23 09:02:00;;;;;;;5.85;1.60;;;20.10;99.90;;;;;;4990846;28;20037;-75
2023/08/23 09:04:26;;;;;;;5.78;1.52;;;20.20;99.90;;;;;;4990576;28;20080;-76
2023/08/23 09:06:53;;;;;;;5.43;1.63;;;20.40;99.90;;;;;;4991297;28;20435;-74
2023/08/23 09:09:20;;;;;;;4.53;1.27;;;20.50;99.90;;;;;;4990312;28;20038;-76
2023/08/23 09:11:45;;;;;;;4.50;1.50;;;20.60;99.90;;;;;;4990953;28;20054;-75
2023/08/23 09:14:16;;;;;;;5.30;1.40;;;20.60;99.90;;;;;;4990911;28;20081;-77
2023/08/23 09:16:43;;;;;;;3.47;1.35;;;20.50;99.90;;;;;;4989800;28;20471;-75
2023/08/23 09:19:12;;;;;;;4.50;1.25;;;20.60;99.90;;;;;;4991212;28;20472;-76
2023/08/23 09:21:45;;;;;;;7.50;1.60;;;20.70;99.90;;;;;;4988823;28;20425;-75
2023/08/23 09:24:11;;;;;;;3.35;1.13;;;20.60;99.90;;;;;;4990929;28;20143;-76
2023/08/23 09:26:38;;;;;;;5.72;1.30;;;20.50;99.90;;;;;;4990479;28;20045;-75
2023/08/23 09:29:04;;;;;;;6.10;1.52;;;20.70;99.90;;;;;;4990481;28;20044;-74
2023/08/23 09:31:30;;;;;;;4.07;1.17;;;20.70;99.90;;;;;;4989966;28;20022;-75
2023/08/23 09:33:56;;;;;;;4.65;1.23;;;20.70;99.90;;;;;;4988486;28;20035;-75
2023/08/23 09:36:41;;;;;;;3.08;1.30;;;20.80;99.90;;;;;;4990183;28;20328;-75
2023/08/23 09:39:11;;;;;;;4.65;1.30;;;20.80;99.90;;;;;;4990400;28;20073;-75
2023/08/23 09:41:43;;;;;;;4.63;1.40;;;20.80;99.90;;;;;;4990447;28;20101;-76
2023/08/23 09:44:09;;;;;;;4.60;1.50;;;20.60;99.90;;;;;;4989344;28;20066;-75
2023/08/23 09:46:36;;;;;;;4.35;1.30;;;20.50;99.90;;;;;;4990228;28;20030;-74
2023/08/23 09:49:06;;;;;;;4.68;1.33;;;20.40;99.90;;;;;;4990175;28;20038;-75
2023/08/23 09:51:37;;;;;;;4.30;1.17;;;20.40;99.90;;;;;;4991765;28;20022;-75
2023/08/23 09:54:24;;;;;;;3.92;1.15;;;20.60;99.90;;;;;;4993554;28;20365;-75
2023/08/23 09:56:51;;;;;;;4.63;1.05;;;20.80;99.90;;;;;;4993921;28;20026;-76
2023/08/23 09:59:17;;;;;;;4.47;1.23;;;20.90;99.90;;;;;;4993545;28;20097;-77
2023/08/23 10:01:44;;;;;;;3.33;1.20;;;21.00;99.90;;;;;;4993048;28;20096;-76
2023/08/23 10:04:10;;;;;;;5.97;1.40;;;20.80;99.90;;;;;;4992269;28;20033;-75
2023/08/23 10:06:37;;;;;;;4.72;1.38;;;20.60;99.90;;;;;;4992952;28;20085;-74
2023/08/23 10:09:03;;;;;;;6.35;1.33;;;20.50;99.90;;;;;;4993378;28;20108;-74
2023/08/23 10:11:30;;;;;;;4.68;1.33;;;20.50;99.90;;;;;;4992750;28;20034;-74
2023/08/23 10:13:58;;;;;;;4.05;1.50;;;20.60;99.90;;;;;;4993065;28;20031;-76
2023/08/23 10:16:25;;;;;;;4.45;1.30;;;20.60;99.90;;;;;;4992898;28;20109;-76
2023/08/23 10:18:52;;;;;;;1.92;1.00;;;20.60;99.90;;;;;;4993356;28;20035;-75
2023/08/23 10:21:18;;;;;;;6.22;1.23;;;20.70;99.90;;;;;;4992905;28;20053;-77
2023/08/23 10:23:44;;;;;;;5.45;1.65;;;20.90;99.90;;;;;;4992923;28;20392;-75
2023/08/23 10:26:19;;;;;;;1.60;1.10;;;21.00;99.90;;;;;;4993184;28;20030;-74
2023/08/23 10:28:53;;;;;;;4.40;1.23;;;21.00;99.90;;;;;;4993516;28;20038;-76
2023/08/23 10:31:25;;;;;;;3.17;1.40;;;21.20;99.90;;;;;;4993585;28;20356;-78
2023/08/23 10:33:55;;;;;;;;;;;21.40;99.90;;;;;;4994214;28;20164;-75
2023/08/23 10:36:25;;;;;;;1.70;1.13;;;21.50;99.90;;;;;;4993205;28;19905;-76
2023/08/23 10:38:56;;;;;;;4.20;1.40;;;21.60;99.90;;;;;;4992969;28;20068;-74
2023/08/23 10:41:23;;;;;;;3.53;1.10;;;21.60;99.90;;;;;;4992935;28;20185;-75
2023/08/23 10:43:51;;;;;;;3.22;1.33;;;21.70;99.90;;;;;;4993578;28;20037;-76
2023/08/23 10:46:21;;;;;;;4.43;1.42;;;21.70;99.90;;;;;;4993435;28;20128;-76
2023/08/23 10:48:47;;;;;;;3.45;1.20;;;21.70;99.90;;;;;;4993222;28;20038;-75
2023/08/23 10:51:14;;;;;;;5.03;1.40;;;21.70;99.90;;;;;;4992928;28;20030;-76
2023/08/23 10:53:41;;;;;;;3.55;1.50;;;21.50;99.90;;;;;;4992771;28;20053;-74
2023/08/23 10:56:07;;;;;;;3.53;1.30;;;21.50;99.90;;;;;;4992863;28;20054;-76
2023/08/23 10:58:33;;;;;;;5.18;1.48;;;21.30;99.90;;;;;;4992413;28;20109;-74
2023/08/23 11:00:59;;;;;;;3.92;1.48;;;21.20;99.90;;;;;;4990947;28;20122;-74
2023/08/23 11:03:28;;;;;;;6.65;1.77;;;21.10;99.90;;;;;;4991163;28;20022;-77
2023/08/23 11:05:54;;;;;;;6.53;1.20;;;21.10;99.90;;;;;;4992773;28;20045;-76
2023/08/23 11:08:21;;;;;;;2.13;1.27;;;21.00;99.90;;;;;;4992375;28;20034;-78
2023/08/23 11:10:48;;;;;;;6.22;1.65;;;21.00;99.90;;;;;;4992409;28;20034;-76
2023/08/23 11:13:14;;;;;;;5.43;1.50;;;21.00;99.90;;;;;;4992322;28;20433;-74
2023/08/23 11:15:43;;;;;;;2.55;1.20;;;20.90;99.90;;;;;;4991873;28;20065;-77
2023/08/23 11:18:13;;;;;;;1.88;0.93;;;20.90;99.90;;;;;;4992488;28;20742;-75
2023/08/23 11:20:39;;;;;;;4.05;1.33;;;20.90;99.90;;;;;;4990968;28;20494;-76
2023/08/23 11:23:05;;;;;;;3.50;1.55;;;20.80;99.90;;;;;;4992180;28;20313;-76
2023/08/23 11:25:31;;;;;;;6.53;2.00;;;20.70;99.90;;;;;;4992340;28;20022;-76
2023/08/23 11:27:58;;;;;;;5.72;2.35;;;20.50;99.90;;;;;;4993039;28;20042;-76
2023/08/23 11:30:23;;;;;;;6.75;1.60;;;20.50;99.90;;;;;;4991366;28;20118;-77
2023/08/23 11:32:49;;;;;;;3.50;1.50;;;20.50;99.90;;;;;;4993134;28;20169;-75
2023/08/23 11:35:21;;;;;;;4.47;1.55;;;20.40;99.90;;;;;;4992661;28;20438;-75
2023/08/23 11:37:51;;;;;;;11.38;2.45;;;20.40;99.90;;;;;;4992990;28;20041;-76
2023/08/23 11:40:17;;;;;;;6.25;1.73;;;20.50;99.90;;;;;;4993506;28;20046;-75
2023/08/23 11:42:43;;;;;;;3.60;1.20;;;20.30;99.90;;;;;;4993121;28;20026;-75
2023/08/23 11:45:09;;;;;;;1.83;0.90;;;20.30;99.90;;;;;;4993340;28;20097;-75
2023/08/23 11:47:36;;;;;;;2.75;1.02;;;20.20;99.90;;;;;;4992488;28;20118;-75
2023/08/23 11:50:05;;;;;;;0.80;0.60;;;20.20;99.90;;;;;;4992723;28;20142;-75
2023/08/23 11:52:32;;;;;;;3.30;0.60;;;20.20;99.90;;;;;;4991667;28;20108;-76
2023/08/23 11:54:58;;;;;;;1.25;0.55;;;20.10;99.90;;;;;;4992563;28;20140;-74
2023/08/23 11:57:24;;;;;;;2.05;0.68;;;20.10;99.90;;;;;;4992035;28;20034;-77
2023/08/23 11:59:50;;;;;;;1.50;0.57;;;20.10;99.90;;;;;;4992334;28;20104;-74
2023/08/23 12:02:16;;;;;;;1.08;0.57;;;20.10;99.90;;;;;;4992545;28;20404;-76
2023/08/23 12:04:42;;;;;;;1.85;0.38;;;20.20;99.90;;;;;;4991994;28;20357;-75
2023/08/23 12:07:12;;;;;;;2.30;0.60;;;20.30;99.90;;;;;;4992155;28;20030;-76
2023/08/23 12:09:39;;;;;;;1.00;0.45;;;20.30;99.90;;;;;;4992101;28;20120;-76
2023/08/23 12:12:06;;;;;;;1.25;0.40;;;20.40;99.90;;;;;;4992635;28;20109;-77
2023/08/23 12:14:32;;;;;;;0.98;0.60;;;20.60;99.90;;;;;;4991656;28;20031;-75
2023/08/23 12:16:57;;;;;;;0.70;0.30;;;20.60;99.90;;;;;;4992116;28;20027;-75
2023/08/23 12:19:23;;;;;;;0.82;0.40;;;20.70;99.90;;;;;;4990911;28;20100;-76
2023/08/23 12:21:50;;;;;;;0.80;0.57;;;20.70;99.90;;;;;;4991906;28;20061;-75
2023/08/23 12:24:16;;;;;;;4.53;0.55;;;20.70;99.90;;;;;;4992339;28;20034;-74
2023/08/23 12:26:42;;;;;;;0.65;0.47;;;20.70;99.90;;;;;;4992058;28;20030;-75
2023/08/23 12:29:08;;;;;;;1.58;0.60;;;20.70;99.90;;;;;;4992312;28;20530;-76
2023/08/23 12:31:33;;;;;;;1.15;0.40;;;20.70;99.90;;;;;;4991890;28;20448;-75
2023/08/23 12:33:59;;;;;;;0.32;0.20;;;20.60;99.90;;;;;;4992399;28;20022;-78
2023/08/23 12:36:25;;;;;;;1.27;0.43;;;20.60;99.90;;;;;;4992476;28;20460;-78
2023/08/23 12:38:52;;;;;;;1.17;0.35;;;20.60;99.90;;;;;;4991347;28;20046;-76
2023/08/23 12:41:17;;;;;;;0.88;0.30;;;20.40;99.90;;;;;;4993891;28;20508;-75
2023/08/23 12:43:43;;;;;;;0.30;0.30;;;20.30;99.90;;;;;;4991277;28;20174;-76